createdAt,value
2023-01-13T00:01:59.712Z,98.55
2023-01-13T00:05:02.483Z,98.54
2023-01-13T00:08:06.556Z,98.71
2023-01-13T00:11:09.982Z,98.65
2023-01-13T00:14:12.542Z,98.34
2023-01-13T00:17:14.957Z,98.33
2023-01-13T00:20:18.012Z,98.57
2023-01-13T00:23:20.643Z,98.45
2023-01-13T00:26:28.212Z,98.32
2023-01-13T00:29:32.507Z,98.48
2023-01-13T00:32:35.731Z,98.85
2023-01-13T00:35:38.435Z,98.80
2023-01-13T00:38:43.222Z,98.58
2023-01-13T00:42:04.272Z,98.66
2023-01-13T00:45:07.434Z,98.98
2023-01-13T00:48:09.908Z,99.32
2023-01-13T00:51:17.341Z,99.73
2023-01-13T00:54:19.931Z,99.62
2023-01-13T00:57:22.569Z,99.67
2023-01-13T01:00:25.184Z,99.81
2023-01-13T01:03:27.971Z,99.84
2023-01-13T01:06:31.450Z,99.85
2023-01-13T01:09:34.801Z,99.52
2023-01-13T01:12:37.205Z,99.57
2023-01-13T01:15:43.732Z,99.78
2023-01-13T01:18:47.925Z,99.69
2023-01-13T01:21:50.671Z,99.61
2023-01-13T01:24:53.275Z,99.52
2023-01-13T01:27:55.868Z,99.38
2023-01-13T01:30:59.749Z,99.04
2023-01-13T01:34:02.503Z,99.04
2023-01-13T01:37:05.525Z,99.29
2023-01-13T01:40:09.355Z,99.28
2023-01-13T01:43:41.333Z,99.25
2023-01-13T01:46:45.056Z,99.49
2023-01-13T01:49:48.066Z,99.35
2023-01-13T01:52:56.162Z,99.47
2023-01-13T01:56:00.200Z,99.62
2023-01-13T01:59:03.072Z,99.42
2023-01-13T02:02:06.604Z,99.59
2023-01-13T02:05:09.658Z,99.92
2023-01-13T02:08:14.020Z,100.00
2023-01-13T02:11:51.715Z,100.00
2023-01-13T02:14:54.406Z,100.00
2023-01-13T02:18:12.027Z,100.00
2023-01-13T02:21:52.503Z,100.00
2023-01-13T02:25:11.023Z,100.00
2023-01-13T02:28:31.691Z,100.00
2023-01-13T02:31:43.219Z,100.00
2023-01-13T02:34:56.957Z,100.00
2023-01-13T02:38:01.980Z,100.00
2023-01-13T02:41:31.028Z,100.00
2023-01-13T02:44:41.348Z,100.00
2023-01-13T02:47:47.615Z,100.00
2023-01-13T02:51:22.771Z,100.00
2023-01-13T02:55:00.471Z,100.00
2023-01-13T02:58:06.468Z,100.00
2023-01-13T03:01:09.323Z,100.00
2023-01-13T03:04:14.033Z,100.00
2023-01-13T03:07:34.151Z,100.00
2023-01-13T03:11:03.935Z,100.00
2023-01-13T03:14:15.490Z,100.00
2023-01-13T03:17:25.219Z,100.00
2023-01-13T03:20:44.013Z,100.00
2023-01-13T03:23:54.080Z,100.00
2023-01-13T03:26:59.618Z,100.00
2023-01-13T03:30:23.646Z,100.00
2023-01-13T03:33:30.945Z,100.00
2023-01-13T03:36:38.724Z,100.00
2023-01-13T03:39:50.288Z,100.00
2023-01-13T03:43:22.496Z,100.00
2023-01-13T03:46:36.343Z,100.00
2023-01-13T03:50:08.290Z,100.00
2023-01-13T03:53:18.039Z,100.00
2023-01-13T03:56:36.686Z,100.00
2023-01-13T03:59:43.526Z,100.00
2023-01-13T04:02:58.584Z,100.00
2023-01-13T04:06:23.203Z,100.00
2023-01-13T04:09:28.761Z,100.00
2023-01-13T04:13:03.190Z,100.00
2023-01-13T04:16:11.459Z,100.00
2023-01-13T04:19:14.252Z,100.00
2023-01-13T04:22:17.138Z,100.00
2023-01-13T04:25:19.571Z,100.00
2023-01-13T04:28:22.786Z,100.00
2023-01-13T04:31:25.245Z,100.00
2023-01-13T04:34:28.561Z,100.00
2023-01-13T04:37:31.565Z,100.00
2023-01-13T04:40:34.690Z,100.00
2023-01-13T04:43:37.439Z,100.00
2023-01-13T04:46:40.072Z,100.00
2023-01-13T04:49:43.042Z,100.00
2023-01-13T04:52:52.838Z,100.00
2023-01-13T04:55:55.362Z,100.00
2023-01-13T04:58:58.298Z,100.00
2023-01-13T05:02:00.822Z,100.00
2023-01-13T05:05:04.283Z,100.00
2023-01-13T05:08:09.084Z,100.00
2023-01-13T05:11:29.922Z,100.00
2023-01-13T05:14:50.997Z,100.00
2023-01-13T05:17:53.707Z,100.00
2023-01-13T05:20:56.675Z,100.00
2023-01-13T05:24:17.911Z,100.00
2023-01-13T05:27:20.536Z,100.00
2023-01-13T05:30:27.297Z,100.00
2023-01-13T05:33:30.020Z,100.00
2023-01-13T05:36:32.801Z,100.00
2023-01-13T05:39:55.845Z,100.00
2023-01-13T05:43:20.673Z,100.00
2023-01-13T05:46:23.900Z,100.00
2023-01-13T05:49:26.741Z,100.00
2023-01-13T05:52:29.544Z,100.00
2023-01-13T05:55:32.489Z,100.00
2023-01-13T05:58:35.460Z,100.00
2023-01-13T06:01:38.249Z,100.00
2023-01-13T06:04:40.678Z,100.00
2023-01-13T06:07:43.395Z,100.00
2023-01-13T06:10:47.600Z,100.00
2023-01-13T06:13:50.140Z,100.00
2023-01-13T06:16:52.898Z,100.00
2023-01-13T06:19:55.909Z,100.00
2023-01-13T06:22:59.490Z,100.00
2023-01-13T06:26:19.916Z,100.00
2023-01-13T06:29:22.641Z,100.00
2023-01-13T06:32:30.318Z,100.00
2023-01-13T06:35:36.457Z,100.00
2023-01-13T06:38:43.574Z,100.00
2023-01-13T06:42:07.666Z,100.00
2023-01-13T06:45:11.103Z,100.00
2023-01-13T06:48:14.123Z,100.00
2023-01-13T06:51:16.698Z,100.00
2023-01-13T06:54:19.211Z,100.00
2023-01-13T06:57:21.838Z,100.00
2023-01-13T07:00:26.927Z,100.00
2023-01-13T07:03:29.575Z,100.00
2023-01-13T07:06:32.458Z,100.00
2023-01-13T07:09:35.539Z,100.00
2023-01-13T07:12:57.260Z,100.00
2023-01-13T07:16:03.487Z,100.00
2023-01-13T07:19:05.962Z,100.00
2023-01-13T07:22:08.612Z,100.00
2023-01-13T07:25:12.115Z,100.00
2023-01-13T07:28:15.510Z,100.00
2023-01-13T07:31:23.508Z,100.00
2023-01-13T07:34:26.065Z,100.00
2023-01-13T07:37:28.619Z,100.00
2023-01-13T07:40:31.241Z,100.00
2023-01-13T07:43:33.980Z,100.00
2023-01-13T07:46:37.952Z,100.00
2023-01-13T07:49:40.514Z,100.00
2023-01-13T07:52:43.227Z,100.00
2023-01-13T07:55:45.924Z,100.00
2023-01-13T07:58:51.111Z,100.00
2023-01-13T08:01:54.012Z,100.00
2023-01-13T08:04:58.204Z,100.00
2023-01-13T08:08:02.129Z,100.00
2023-01-13T08:11:07.076Z,100.00
2023-01-13T08:14:09.751Z,100.00
2023-01-13T08:17:12.826Z,100.00
2023-01-13T08:20:17.357Z,100.00
2023-01-13T08:23:22.158Z,100.00
2023-01-13T08:26:24.914Z,100.00
2023-01-13T08:29:27.511Z,100.00
2023-01-13T08:32:30.072Z,100.00
2023-01-13T08:35:32.603Z,100.00
2023-01-13T08:38:36.307Z,100.00
2023-01-13T08:41:57.178Z,100.00
2023-01-13T08:44:59.824Z,100.00
2023-01-13T08:48:03.319Z,100.00
2023-01-13T08:51:08.985Z,100.00
2023-01-13T08:54:12.206Z,100.00
2023-01-13T08:57:15.597Z,100.00
2023-01-13T09:00:18.869Z,100.00
2023-01-13T09:03:21.978Z,100.00
2023-01-13T09:06:24.957Z,100.00
2023-01-13T09:09:29.361Z,100.00
2023-01-13T09:12:50.477Z,100.00
2023-01-13T09:15:56.618Z,100.00
2023-01-13T09:18:59.205Z,100.00
2023-01-13T09:22:02.331Z,100.00
2023-01-13T09:25:05.367Z,100.00
2023-01-13T09:28:08.860Z,100.00
2023-01-13T09:31:11.925Z,100.00
2023-01-13T09:34:38.460Z,100.00
2023-01-13T09:37:41.577Z,100.00
2023-01-13T09:40:49.153Z,100.00
2023-01-13T09:43:59.405Z,100.00
2023-01-13T09:47:07.238Z,100.00
2023-01-13T09:50:19.381Z,100.00
2023-01-13T09:53:38.680Z,100.00
2023-01-13T09:56:41.344Z,100.00
2023-01-13T09:59:44.951Z,99.41
2023-01-13T10:03:20.747Z,99.14
2023-01-13T10:07:59.128Z,98.88
2023-01-13T10:12:28.196Z,99.08
2023-01-13T10:15:30.963Z,99.34
2023-01-13T10:18:37.727Z,99.58
2023-01-13T10:22:09.281Z,99.84
2023-01-13T10:25:20.503Z,99.81
2023-01-13T10:28:24.084Z,100.00
2023-01-13T10:31:27.071Z,100.00
2023-01-13T10:34:29.794Z,100.00
2023-01-13T10:37:32.588Z,100.00
2023-01-13T10:40:36.249Z,100.00
2023-01-13T10:43:38.934Z,100.00
2023-01-13T10:46:55.833Z,100.00
2023-01-13T10:50:19.648Z,100.00
2023-01-13T10:53:26.442Z,100.00
2023-01-13T10:56:32.972Z,100.00
2023-01-13T10:59:40.449Z,100.00
2023-01-13T11:02:43.041Z,100.00
2023-01-13T11:06:19.785Z,100.00
2023-01-13T11:09:23.024Z,100.00
2023-01-13T11:12:35.207Z,100.00
2023-01-13T11:15:50.900Z,100.00
2023-01-13T11:19:02.839Z,100.00
2023-01-13T11:22:12.525Z,100.00
2023-01-13T11:25:30.248Z,100.00
2023-01-13T11:28:35.583Z,100.00
2023-01-13T11:32:09.948Z,99.96
2023-01-13T11:35:21.654Z,100.00
2023-01-13T11:38:28.665Z,99.88
2023-01-13T11:41:44.896Z,99.45
2023-01-13T11:45:01.794Z,99.06
2023-01-13T11:48:05.587Z,98.97
2023-01-13T11:51:20.782Z,99.08
2023-01-13T11:54:51.787Z,99.26
2023-01-13T11:58:16.657Z,98.86
2023-01-13T12:01:36.038Z,98.80
2023-01-13T12:05:06.579Z,99.20
2023-01-13T12:08:23.010Z,99.21
2023-01-13T12:11:57.294Z,99.42
2023-01-13T12:15:18.335Z,99.59
2023-01-13T12:18:50.091Z,99.29
2023-01-13T12:22:16.385Z,99.26
2023-01-13T12:25:39.571Z,99.75
2023-01-13T12:28:51.478Z,99.19
2023-01-13T12:31:54.746Z,98.70
2023-01-13T12:35:06.690Z,98.82
2023-01-13T12:38:24.366Z,98.28
2023-01-13T12:42:07.923Z,98.50
2023-01-13T12:45:10.498Z,98.79
2023-01-13T12:48:56.770Z,98.25
2023-01-13T12:52:11.005Z,98.03
2023-01-13T12:55:16.741Z,98.73
2023-01-13T12:58:28.159Z,98.63
2023-01-13T13:01:37.765Z,98.38
2023-01-13T13:04:52.328Z,98.15
2023-01-13T13:08:39.115Z,98.27
2023-01-13T13:12:03.572Z,98.73
2023-01-13T13:15:20.829Z,98.52
2023-01-13T13:18:28.314Z,98.51
2023-01-13T13:22:09.916Z,98.73
2023-01-13T13:25:24.854Z,98.58
2023-01-13T13:28:33.168Z,98.82
2023-01-13T13:31:56.277Z,98.90
2023-01-13T13:35:17.597Z,98.88
2023-01-13T13:39:34.363Z,98.74
2023-01-13T13:43:08.789Z,98.60
2023-01-13T13:46:47.631Z,98.00
2023-01-13T13:49:54.425Z,98.55
2023-01-13T13:53:07.413Z,97.86
2023-01-13T13:56:20.755Z,98.54
2023-01-13T13:59:26.984Z,98.45
2023-01-13T14:02:31.871Z,98.22
2023-01-13T14:05:36.405Z,97.89
2023-01-13T14:08:46.621Z,98.36
2023-01-13T14:12:04.443Z,98.30
2023-01-13T14:15:32.351Z,98.23
2023-01-13T14:18:48.377Z,98.62
2023-01-13T14:21:50.814Z,98.40
2023-01-13T14:24:57.928Z,98.10
2023-01-13T14:28:27.965Z,98.31
2023-01-13T14:31:32.056Z,97.85
2023-01-13T14:34:35.659Z,97.86
2023-01-13T14:37:40.939Z,97.90
2023-01-13T14:40:45.759Z,97.96
2023-01-13T14:43:50.331Z,97.87
2023-01-13T14:46:57.687Z,97.65
2023-01-13T14:50:06.287Z,97.71
2023-01-13T14:53:29.302Z,97.89
2023-01-13T14:56:42.168Z,97.89
2023-01-13T14:59:51.668Z,98.26
2023-01-13T15:02:59.048Z,98.55
2023-01-13T15:06:01.575Z,98.78
2023-01-13T15:09:12.695Z,98.69
2023-01-13T15:12:29.361Z,98.46
2023-01-13T15:15:33.978Z,98.53
2023-01-13T15:18:40.092Z,98.60
2023-01-13T15:21:43.299Z,98.63
2023-01-13T15:24:47.894Z,98.77
2023-01-13T15:27:52.908Z,98.76
2023-01-13T15:31:00.619Z,98.57
2023-01-13T15:34:03.440Z,98.57
2023-01-13T15:37:08.224Z,98.57
2023-01-13T15:40:30.976Z,98.35
2023-01-13T15:43:51.925Z,98.87
2023-01-13T15:46:54.921Z,99.02
2023-01-13T15:49:57.415Z,98.83
2023-01-13T15:53:00.660Z,98.83
2023-01-13T15:56:06.093Z,98.79
2023-01-13T15:59:18.824Z,98.63
2023-01-13T16:02:22.722Z,98.79
2023-01-13T16:05:25.988Z,98.71
2023-01-13T16:08:28.715Z,98.72
2023-01-13T16:11:31.911Z,98.76
2023-01-13T16:14:34.454Z,98.46
2023-01-13T16:17:37.626Z,98.51
2023-01-13T16:20:40.425Z,98.53
2023-01-13T16:23:43.577Z,98.39
2023-01-13T16:26:46.065Z,98.51
2023-01-13T16:29:49.936Z,98.59
2023-01-13T16:32:52.827Z,98.34
2023-01-13T16:36:11.021Z,98.61
2023-01-13T16:39:22.522Z,98.51
2023-01-13T16:42:25.303Z,98.46
2023-01-13T16:45:27.842Z,98.22
2023-01-13T16:48:31.141Z,98.36
2023-01-13T16:51:33.711Z,98.34
2023-01-13T16:54:36.742Z,98.20
2023-01-13T16:57:39.821Z,98.21
2023-01-13T17:00:42.836Z,98.36
2023-01-13T17:03:49.062Z,98.28
2023-01-13T17:06:56.185Z,97.84
2023-01-13T17:09:59.155Z,97.94
2023-01-13T17:13:14.783Z,97.73
2023-01-13T17:16:26.129Z,97.66
2023-01-13T17:19:29.116Z,97.35
2023-01-13T17:22:32.324Z,97.42
2023-01-13T17:25:35.011Z,97.71
2023-01-13T17:28:37.611Z,97.57
2023-01-13T17:31:40.776Z,97.83
2023-01-13T17:34:44.492Z,98.13
2023-01-13T17:37:47.365Z,98.10
2023-01-13T17:40:50.632Z,98.22
2023-01-13T18:07:22.809Z,97.24
2023-01-13T18:10:25.473Z,97.13
2023-01-13T18:13:28.945Z,97.02
2023-01-13T18:16:32.294Z,97.01
2023-01-13T18:19:53.658Z,97.16
2023-01-13T18:23:14.645Z,96.71
2023-01-13T18:26:37.818Z,96.89
2023-01-13T18:29:40.510Z,96.99
2023-01-13T18:32:43.759Z,97.20
2023-01-13T18:35:46.470Z,97.07
2023-01-13T18:38:51.093Z,96.49
2023-01-13T18:42:12.761Z,97.02
2023-01-13T18:45:15.674Z,97.30
2023-01-13T18:48:18.579Z,97.41
2023-01-13T18:51:21.809Z,97.57
2023-01-13T18:54:24.203Z,96.43
2023-01-13T18:57:27.617Z,96.91
2023-01-13T19:00:36.411Z,97.47
2023-01-13T19:03:39.626Z,97.40
2023-01-13T19:06:53.600Z,97.72
2023-01-13T19:09:56.551Z,97.89
2023-01-13T19:12:59.343Z,97.84
2023-01-13T19:16:09.082Z,98.08
2023-01-13T19:19:11.969Z,97.65
2023-01-13T19:22:23.527Z,98.06
2023-01-13T19:25:26.010Z,98.11
2023-01-13T19:28:29.328Z,98.12
2023-01-13T19:31:39.172Z,98.31
2023-01-13T19:34:43.979Z,98.27
2023-01-13T19:37:46.824Z,98.37
2023-01-13T19:40:55.961Z,98.70
2023-01-13T19:44:17.252Z,98.73
2023-01-13T19:47:20.043Z,98.65
2023-01-13T19:50:23.267Z,98.57
2023-01-13T19:53:26.688Z,98.54
2023-01-13T19:56:30.658Z,98.34
2023-01-13T19:59:34.040Z,98.51
2023-01-13T20:02:37.144Z,98.73
2023-01-13T20:05:40.484Z,98.35
2023-01-13T20:08:46.189Z,98.13
2023-01-13T20:11:53.146Z,98.29
2023-01-13T20:14:56.288Z,97.63
2023-01-13T20:18:01.076Z,97.55
2023-01-13T20:21:06.872Z,97.39
2023-01-13T20:24:17.051Z,97.61
2023-01-13T20:27:19.580Z,97.20
2023-01-13T20:30:23.970Z,96.69
2023-01-13T20:33:26.939Z,97.15
2023-01-13T20:36:34.189Z,96.82
2023-01-13T20:39:37.135Z,96.42
2023-01-13T20:42:45.316Z,96.52
2023-01-13T20:45:48.116Z,96.47
2023-01-13T20:48:51.058Z,96.66
2023-01-13T20:51:55.067Z,96.96
2023-01-13T20:54:58.260Z,96.37
2023-01-13T20:58:00.767Z,96.23
2023-01-13T21:01:04.866Z,96.59
2023-01-13T21:04:08.280Z,96.20
2023-01-13T21:07:11.676Z,96.44
2023-01-13T21:10:14.696Z,96.67
2023-01-13T21:13:36.254Z,96.55
2023-01-13T21:16:38.733Z,96.79
2023-01-13T21:19:41.405Z,97.08
2023-01-13T21:22:45.899Z,96.86
2023-01-13T21:25:48.856Z,97.13
2023-01-13T21:28:51.474Z,97.21
2023-01-13T21:31:54.839Z,97.33
2023-01-13T21:34:58.941Z,97.76
2023-01-13T21:38:01.817Z,97.78
2023-01-13T21:41:07.722Z,98.18
2023-01-13T21:44:34.389Z,98.07
2023-01-13T21:47:49.010Z,98.02
2023-01-13T21:50:51.901Z,98.28
2023-01-13T21:53:55.410Z,98.22
2023-01-13T21:56:58.301Z,97.80
2023-01-13T22:00:01.197Z,97.83
2023-01-13T22:03:06.350Z,97.65
2023-01-13T22:06:08.911Z,97.56
2023-01-13T22:09:12.903Z,97.47
2023-01-13T22:12:17.871Z,97.70
2023-01-13T22:15:21.001Z,97.83
2023-01-13T22:18:23.501Z,97.90
2023-01-13T22:21:26.192Z,98.02
2023-01-13T22:24:30.210Z,97.92
2023-01-13T22:27:39.319Z,98.02
2023-01-13T22:30:44.351Z,98.33
2023-01-13T22:33:48.133Z,98.27
2023-01-13T22:36:50.582Z,98.15
2023-01-13T22:39:53.682Z,98.34
2023-01-13T22:42:56.441Z,98.19
2023-01-13T22:46:11.157Z,98.84
2023-01-13T22:49:14.695Z,98.21
2023-01-13T22:52:17.724Z,98.46
2023-01-13T22:55:20.431Z,98.60
2023-01-13T22:58:23.875Z,98.88
2023-01-13T23:01:28.871Z,98.52
2023-01-13T23:04:32.123Z,98.25
2023-01-13T23:07:35.664Z,98.57
2023-01-13T23:10:39.815Z,98.56
2023-01-13T23:13:43.398Z,98.66
2023-01-13T23:16:47.385Z,98.74
2023-01-13T23:19:50.125Z,98.89
2023-01-13T23:22:53.072Z,99.21
2023-01-13T23:25:56.511Z,99.29
2023-01-13T23:29:05.117Z,99.35
2023-01-13T23:32:07.795Z,99.57
2023-01-13T23:35:11.184Z,99.54
2023-01-13T23:38:13.676Z,99.71
2023-01-13T23:41:19.672Z,99.73
2023-01-13T23:44:22.254Z,99.99
2023-01-13T23:47:24.933Z,100.00
2023-01-13T23:50:28.757Z,100.00
2023-01-13T23:53:40.082Z,100.00
2023-01-13T23:56:43.150Z,100.00
2023-01-13T23:59:46.611Z,100.00
